createdAt,value
2023-03-06T00:00:40.114Z,73.18
2023-03-06T00:03:07.939Z,72.70
2023-03-06T00:05:35.459Z,71.87
2023-03-06T00:08:03.837Z,71.72
2023-03-06T00:10:32.323Z,72.48
2023-03-06T00:13:05.876Z,72.50
2023-03-06T00:15:33.715Z,72.29
2023-03-06T00:18:04.294Z,71.69
2023-03-06T00:20:32.557Z,71.48
2023-03-06T00:23:02.086Z,71.71
2023-03-06T00:25:29.698Z,72.72
2023-03-06T00:27:57.493Z,72.28
2023-03-06T00:30:25.621Z,72.73
2023-03-06T00:32:53.620Z,72.59
2023-03-06T00:35:21.365Z,72.55
2023-03-06T00:37:49.302Z,72.99
2023-03-06T00:40:19.569Z,72.79
2023-03-06T00:42:48.008Z,72.46
2023-03-06T00:45:16.095Z,73.26
2023-03-06T00:47:43.828Z,73.51
2023-03-06T00:50:11.977Z,74.45
2023-03-06T00:52:41.996Z,73.44
2023-03-06T00:55:10.702Z,73.23
2023-03-06T00:57:38.302Z,75.04
2023-03-06T01:00:07.335Z,74.65
2023-03-06T01:02:35.187Z,75.44
2023-03-06T01:05:02.958Z,75.57
2023-03-06T01:07:34.136Z,74.95
2023-03-06T01:10:01.771Z,75.53
2023-03-06T01:12:29.370Z,75.20
2023-03-06T01:14:58.055Z,76.04
2023-03-06T01:17:25.737Z,77.90
2023-03-06T01:19:53.283Z,76.66
2023-03-06T01:22:21.175Z,76.94
2023-03-06T01:24:48.704Z,76.57
2023-03-06T01:27:16.317Z,76.60
2023-03-06T01:29:44.350Z,76.17
2023-03-06T01:32:11.953Z,76.13
2023-03-06T01:34:39.484Z,76.57
2023-03-06T01:37:07.263Z,75.70
2023-03-06T01:39:34.849Z,75.46
2023-03-06T01:42:02.579Z,75.35
2023-03-06T01:44:30.638Z,76.44
2023-03-06T01:46:58.247Z,77.33
2023-03-06T01:49:37.893Z,78.02
2023-03-06T01:52:12.092Z,77.99
2023-03-06T01:54:44.430Z,78.11
2023-03-06T01:57:20.008Z,78.54
2023-03-06T01:59:53.042Z,77.56
2023-03-06T02:02:21.094Z,77.37
2023-03-06T02:04:48.936Z,76.88
2023-03-06T02:07:19.506Z,76.82
2023-03-06T02:09:47.033Z,77.31
2023-03-06T02:12:19.075Z,77.28
2023-03-06T02:14:47.430Z,76.92
2023-03-06T02:17:17.527Z,76.61
2023-03-06T02:20:12.547Z,76.40
2023-03-06T02:22:59.779Z,77.04
2023-03-06T02:25:33.697Z,77.04
2023-03-06T02:28:01.907Z,76.56
2023-03-06T02:30:30.876Z,76.35
2023-03-06T02:32:58.839Z,77.74
2023-03-06T02:35:30.207Z,78.17
2023-03-06T02:37:59.624Z,78.22
2023-03-06T02:40:27.784Z,77.42
2023-03-06T02:42:57.812Z,77.41
2023-03-06T02:45:38.611Z,77.74
2023-03-06T02:48:07.167Z,77.38
2023-03-06T02:50:34.779Z,77.49
2023-03-06T02:53:02.323Z,78.30
2023-03-06T02:55:31.719Z,79.44
2023-03-06T02:58:00.331Z,79.07
2023-03-06T03:00:29.056Z,78.64
2023-03-06T03:02:56.945Z,78.59
2023-03-06T03:05:24.843Z,78.93
2023-03-06T03:07:53.242Z,79.62
2023-03-06T03:10:21.198Z,79.44
2023-03-06T03:12:49.206Z,78.73
2023-03-06T03:15:17.057Z,78.51
2023-03-06T03:17:44.924Z,79.07
2023-03-06T03:20:14.748Z,79.35
2023-03-06T03:22:42.454Z,79.04
2023-03-06T03:25:10.209Z,79.01
2023-03-06T03:27:37.780Z,78.95
2023-03-06T03:30:06.092Z,79.50
2023-03-06T03:32:34.122Z,78.96
2023-03-06T03:35:01.942Z,78.48
2023-03-06T03:37:30.922Z,77.93
2023-03-06T03:39:59.567Z,77.60
2023-03-06T03:42:27.208Z,77.14
2023-03-06T03:44:54.926Z,76.91
2023-03-06T03:47:23.004Z,77.60
2023-03-06T03:49:51.325Z,77.00
2023-03-06T03:52:19.687Z,76.57
2023-03-06T03:54:47.627Z,76.65
2023-03-06T03:57:15.151Z,76.87
2023-03-06T03:59:43.097Z,76.68
2023-03-06T04:02:11.674Z,76.41
2023-03-06T04:04:39.991Z,76.61
2023-03-06T04:07:08.229Z,76.83
2023-03-06T04:09:36.975Z,76.73
2023-03-06T04:12:05.640Z,76.76
2023-03-06T04:14:34.442Z,76.54
2023-03-06T04:17:02.237Z,76.65
2023-03-06T04:19:30.177Z,76.68
2023-03-06T04:21:58.469Z,76.49
2023-03-06T04:24:26.430Z,76.55
2023-03-06T04:26:54.322Z,76.55
2023-03-06T04:29:21.816Z,76.50
2023-03-06T04:31:49.947Z,76.34
2023-03-06T04:34:18.189Z,76.26
2023-03-06T04:36:46.292Z,76.59
2023-03-06T04:39:14.754Z,76.81
2023-03-06T04:41:42.989Z,77.01
2023-03-06T04:44:10.677Z,77.18
2023-03-06T04:46:38.208Z,77.17
2023-03-06T04:49:07.019Z,77.12
2023-03-06T04:51:36.892Z,77.20
2023-03-06T04:54:04.729Z,77.45
2023-03-06T04:56:34.487Z,78.15
2023-03-06T04:59:03.269Z,77.89
2023-03-06T05:01:30.854Z,77.87
2023-03-06T05:03:58.641Z,77.82
2023-03-06T05:06:26.224Z,78.06
2023-03-06T05:08:53.918Z,78.65
2023-03-06T05:11:21.737Z,78.19
2023-03-06T05:13:49.652Z,78.21
2023-03-06T05:16:17.619Z,78.46
2023-03-06T05:18:45.442Z,78.58
2023-03-06T05:21:13.417Z,79.14
2023-03-06T05:23:41.224Z,78.52
2023-03-06T05:26:10.602Z,78.54
2023-03-06T05:28:38.452Z,78.44
2023-03-06T05:31:07.333Z,78.25
2023-03-06T05:33:35.722Z,78.79
2023-03-06T05:36:03.986Z,80.28
2023-03-06T05:38:32.247Z,79.25
2023-03-06T05:41:00.200Z,79.03
2023-03-06T05:43:27.742Z,79.01
2023-03-06T05:46:03.212Z,79.14
2023-03-06T05:48:31.782Z,79.50
2023-03-06T05:51:00.387Z,78.84
2023-03-06T05:53:29.307Z,79.62
2023-03-06T05:55:57.688Z,78.96
2023-03-06T05:58:25.984Z,79.55
2023-03-06T06:00:53.948Z,79.16
2023-03-06T06:03:22.278Z,78.77
2023-03-06T06:05:50.297Z,78.18
2023-03-06T06:08:17.865Z,77.51
2023-03-06T06:10:45.679Z,80.95
2023-03-06T06:13:13.235Z,80.91
2023-03-06T06:15:40.778Z,81.62
2023-03-06T06:18:08.722Z,79.60
2023-03-06T06:20:37.562Z,77.60
2023-03-06T06:23:05.211Z,79.15
2023-03-06T06:25:33.609Z,75.74
2023-03-06T06:28:01.178Z,74.52
2023-03-06T06:30:28.793Z,73.92
2023-03-06T06:32:56.740Z,73.62
2023-03-06T06:35:24.423Z,73.60
2023-03-06T06:37:52.614Z,73.96
2023-03-06T06:40:22.905Z,73.49
2023-03-06T06:42:50.515Z,72.76
2023-03-06T06:45:18.206Z,72.52
2023-03-06T06:47:49.534Z,72.77
2023-03-06T06:50:17.140Z,72.97
2023-03-06T06:52:44.752Z,73.46
2023-03-06T06:55:13.184Z,73.26
2023-03-06T06:57:42.147Z,72.82
2023-03-06T07:00:13.493Z,73.68
2023-03-06T07:02:41.725Z,72.50
2023-03-06T07:05:09.786Z,72.03
2023-03-06T07:07:38.202Z,71.63
2023-03-06T07:10:14.707Z,71.18
2023-03-06T07:12:43.324Z,71.14
2023-03-06T07:15:14.128Z,71.35
2023-03-06T07:17:41.850Z,71.04
2023-03-06T07:20:10.644Z,71.38
2023-03-06T07:22:50.393Z,71.76
2023-03-06T07:25:19.292Z,72.03
2023-03-06T07:27:53.289Z,72.76
2023-03-06T07:30:23.307Z,72.75
2023-03-06T07:32:58.101Z,72.74
2023-03-06T07:35:26.467Z,72.41
2023-03-06T07:37:54.500Z,72.24
2023-03-06T07:40:23.835Z,72.49
2023-03-06T07:42:54.079Z,72.40
2023-03-06T07:45:25.158Z,72.22
2023-03-06T07:47:53.739Z,71.97
2023-03-06T07:50:21.911Z,71.91
2023-03-06T07:52:50.870Z,71.83
2023-03-06T07:55:18.653Z,71.58
2023-03-06T07:57:46.279Z,71.57
2023-03-06T08:00:15.739Z,71.23
2023-03-06T08:02:44.139Z,70.95
2023-03-06T08:05:14.857Z,71.01
2023-03-06T08:07:44.113Z,71.04
2023-03-06T08:10:15.989Z,71.28
2023-03-06T08:12:43.726Z,70.74
2023-03-06T08:15:12.131Z,70.25
2023-03-06T08:17:40.811Z,70.22
2023-03-06T08:20:10.487Z,70.28
2023-03-06T08:22:38.450Z,74.46
2023-03-06T08:25:06.887Z,69.74
2023-03-06T08:27:34.960Z,69.46
2023-03-06T08:30:03.151Z,69.19
2023-03-06T08:32:35.352Z,69.75
2023-03-06T08:35:04.711Z,66.49
2023-03-06T08:37:32.580Z,65.65
2023-03-06T08:40:00.157Z,65.13
2023-03-06T08:42:27.738Z,64.00
2023-03-06T08:44:55.578Z,64.14
2023-03-06T08:47:23.124Z,64.28
2023-03-06T08:49:50.823Z,64.21
2023-03-06T08:52:19.913Z,64.12
2023-03-06T08:54:47.455Z,62.48
2023-03-06T08:57:15.001Z,62.01
2023-03-06T08:59:42.942Z,62.66
2023-03-06T09:02:15.293Z,62.75
2023-03-06T09:04:43.480Z,62.92
2023-03-06T09:07:11.174Z,62.82
2023-03-06T09:09:38.826Z,62.70
2023-03-06T09:12:07.246Z,62.86
2023-03-06T09:14:34.778Z,63.32
2023-03-06T09:17:02.284Z,63.51
2023-03-06T09:19:30.139Z,71.53
2023-03-06T09:21:59.680Z,63.17
2023-03-06T09:24:28.032Z,62.18
2023-03-06T09:26:55.782Z,62.06
2023-03-06T09:29:23.363Z,61.71
2023-03-06T09:31:50.998Z,59.76
2023-03-06T09:34:19.634Z,58.82
2023-03-06T09:36:56.547Z,58.57
2023-03-06T09:39:26.271Z,58.55
2023-03-06T09:41:54.696Z,57.93
2023-03-06T09:44:28.944Z,57.41
2023-03-06T09:46:59.813Z,56.96
2023-03-06T09:49:49.021Z,57.69
2023-03-06T09:52:47.642Z,57.32
2023-03-06T09:55:18.886Z,57.07
2023-03-06T09:58:00.711Z,57.16
2023-03-06T10:00:30.304Z,57.23
2023-03-06T10:03:15.123Z,56.31
2023-03-06T10:05:47.588Z,56.35
2023-03-06T10:08:25.944Z,56.28
2023-03-06T10:11:06.605Z,56.75
2023-03-06T10:13:44.004Z,56.79
2023-03-06T10:16:21.925Z,55.05
2023-03-06T10:18:50.706Z,54.42
2023-03-06T10:21:57.400Z,54.72
2023-03-06T10:25:02.629Z,53.68
2023-03-06T10:27:59.533Z,53.02
2023-03-06T10:30:52.840Z,53.34
2023-03-06T10:33:42.097Z,53.86
2023-03-06T10:36:15.333Z,52.15
2023-03-06T10:38:44.931Z,50.90
2023-03-06T10:41:12.647Z,50.28
2023-03-06T10:43:45.020Z,49.34
2023-03-06T10:46:14.709Z,48.74
2023-03-06T10:48:42.864Z,47.78
2023-03-06T10:51:19.521Z,47.83
2023-03-06T10:53:53.564Z,47.64
2023-03-06T10:56:28.581Z,47.19
2023-03-06T10:59:17.153Z,46.49
2023-03-06T11:01:47.383Z,46.53
2023-03-06T11:04:16.334Z,44.96
2023-03-06T11:06:43.864Z,44.97
2023-03-06T11:09:29.466Z,45.13
2023-03-06T11:12:27.423Z,45.11
2023-03-06T11:15:08.352Z,44.01
2023-03-06T11:17:40.917Z,42.54
2023-03-06T11:20:14.954Z,43.59
2023-03-06T11:22:49.086Z,42.99
2023-03-06T11:25:21.825Z,43.13
2023-03-06T11:27:56.677Z,42.08
2023-03-06T11:30:28.983Z,41.86
2023-03-06T11:33:04.093Z,44.65
2023-03-06T11:35:41.471Z,42.76
2023-03-06T11:38:18.906Z,43.61
2023-03-06T11:40:55.002Z,43.64
2023-03-06T11:44:03.597Z,42.87
2023-03-06T11:46:41.077Z,42.37
2023-03-06T11:49:32.258Z,42.76
2023-03-06T11:52:13.069Z,42.03
2023-03-06T11:54:40.911Z,41.88
2023-03-06T11:57:15.789Z,40.48
2023-03-06T12:00:18.847Z,39.68
2023-03-06T12:03:09.463Z,40.06
2023-03-06T12:05:47.552Z,40.41
2023-03-06T12:08:54.434Z,40.80
2023-03-06T12:11:42.764Z,40.80
2023-03-06T12:14:37.118Z,40.55
2023-03-06T12:17:40.898Z,40.68
2023-03-06T12:20:36.049Z,40.79
2023-03-06T12:23:23.506Z,41.41
2023-03-06T12:25:54.617Z,43.02
2023-03-06T12:28:25.143Z,41.69
2023-03-06T12:31:17.988Z,41.36
2023-03-06T12:34:10.709Z,42.09
2023-03-06T12:36:55.066Z,41.97
2023-03-06T12:39:37.848Z,40.86
2023-03-06T12:42:23.873Z,40.95
2023-03-06T12:45:17.281Z,40.82
2023-03-06T12:47:51.474Z,40.59
2023-03-06T12:50:24.448Z,42.02
2023-03-06T12:52:54.209Z,42.23
2023-03-06T12:55:36.848Z,43.20
2023-03-06T12:58:29.214Z,42.78
2023-03-06T13:01:06.081Z,43.80
2023-03-06T13:04:01.438Z,43.83
2023-03-06T13:06:50.736Z,43.70
2023-03-06T13:09:58.897Z,42.38
2023-03-06T13:12:47.572Z,43.13
2023-03-06T13:15:31.643Z,43.23
2023-03-06T13:17:59.709Z,42.77
2023-03-06T13:20:35.366Z,43.87
2023-03-06T13:23:42.906Z,43.71
2023-03-06T13:26:24.433Z,44.18
2023-03-06T13:28:54.156Z,44.20
2023-03-06T13:31:27.934Z,44.83
2023-03-06T13:34:20.718Z,45.07
2023-03-06T13:36:48.709Z,44.96
2023-03-06T13:39:16.620Z,45.89
2023-03-06T13:41:54.971Z,46.57
2023-03-06T13:44:43.224Z,46.83
2023-03-06T13:50:47.750Z,46.60
2023-03-06T13:53:18.529Z,45.87
2023-03-06T13:55:55.292Z,45.76
2023-03-06T13:58:41.790Z,45.88
2023-03-06T14:01:26.269Z,46.74
2023-03-06T14:04:21.976Z,47.59
2023-03-06T14:06:53.704Z,48.31
2023-03-06T14:09:43.889Z,48.35
2023-03-06T14:12:24.725Z,48.07
2023-03-06T14:14:58.502Z,48.72
2023-03-06T14:17:30.545Z,49.38
2023-03-06T14:20:03.277Z,49.40
2023-03-06T14:22:31.358Z,50.12
2023-03-06T14:25:08.125Z,50.77
2023-03-06T14:27:49.636Z,50.89
2023-03-06T14:30:21.073Z,51.32
2023-03-06T14:32:53.439Z,51.74
2023-03-06T14:35:21.359Z,52.14
2023-03-06T14:37:53.199Z,52.74
2023-03-06T14:40:36.072Z,54.17
2023-03-06T14:43:33.207Z,54.59
2023-03-06T14:46:03.722Z,55.02
2023-03-06T14:48:45.593Z,56.01
2023-03-06T14:51:21.987Z,56.63
2023-03-06T14:53:50.909Z,57.69
2023-03-06T14:56:23.966Z,58.29
2023-03-06T14:59:01.711Z,60.24
2023-03-06T15:01:48.264Z,62.87
2023-03-06T15:04:27.453Z,64.77
2023-03-06T15:06:56.672Z,66.18
2023-03-06T15:09:27.726Z,66.68
2023-03-06T15:12:03.097Z,66.90
2023-03-06T15:14:35.194Z,70.37
2023-03-06T15:17:18.410Z,71.23
2023-03-06T15:19:48.650Z,71.77
2023-03-06T15:22:38.822Z,73.21
2023-03-06T15:25:31.990Z,72.70
2023-03-06T15:28:02.112Z,74.68
2023-03-06T15:30:32.846Z,74.60
2023-03-06T15:33:18.079Z,75.00
2023-03-06T15:35:57.162Z,75.95
2023-03-06T15:38:44.325Z,78.33
2023-03-06T15:41:30.901Z,81.52
2023-03-06T15:43:59.977Z,81.29
2023-03-06T15:46:28.372Z,81.93
2023-03-06T15:49:04.321Z,83.50
2023-03-06T15:51:33.103Z,82.35
2023-03-06T15:54:11.322Z,82.17
2023-03-06T15:56:45.088Z,81.19
2023-03-06T15:59:19.440Z,79.18
2023-03-06T16:01:47.896Z,83.10
2023-03-06T16:04:17.237Z,81.49
2023-03-06T16:06:45.904Z,80.57
2023-03-06T16:09:13.879Z,80.83
2023-03-06T16:11:44.843Z,80.38
2023-03-06T16:14:23.932Z,80.94
2023-03-06T16:16:54.255Z,83.46
2023-03-06T16:19:26.401Z,84.85
2023-03-06T16:21:56.158Z,83.68
2023-03-06T16:24:24.830Z,85.46
2023-03-06T16:26:53.580Z,84.04
2023-03-06T16:29:23.892Z,84.03
2023-03-06T16:31:51.908Z,83.37
2023-03-06T16:34:19.854Z,88.29
2023-03-06T16:36:49.057Z,88.60
2023-03-06T16:39:19.129Z,86.26
2023-03-06T16:41:47.199Z,89.15
2023-03-06T16:44:15.037Z,91.41
2023-03-06T16:46:47.713Z,90.60
2023-03-06T16:49:22.222Z,91.24
2023-03-06T16:51:50.224Z,91.67
2023-03-06T16:54:18.385Z,89.18
2023-03-06T16:56:46.925Z,90.19
2023-03-06T16:59:14.808Z,91.68
2023-03-06T17:01:45.439Z,92.79
2023-03-06T17:04:13.175Z,92.16
2023-03-06T17:06:41.958Z,91.25
2023-03-06T17:09:11.096Z,91.61
2023-03-06T17:11:39.317Z,90.11
2023-03-06T17:14:07.070Z,89.25
2023-03-06T17:16:37.095Z,88.38
2023-03-06T17:19:04.946Z,88.72
2023-03-06T17:21:35.351Z,90.64
2023-03-06T17:24:10.245Z,89.48
2023-03-06T17:26:38.812Z,88.92
2023-03-06T17:29:07.249Z,89.83
2023-03-06T17:31:35.119Z,89.84
2023-03-06T17:34:03.129Z,91.46
2023-03-06T17:36:31.885Z,91.21
2023-03-06T17:39:00.830Z,91.54
2023-03-06T17:41:29.714Z,91.61
2023-03-06T17:43:58.448Z,90.89
2023-03-06T17:46:26.332Z,90.90
2023-03-06T17:48:55.196Z,89.37
2023-03-06T17:51:23.366Z,89.40
2023-03-06T17:53:52.258Z,89.56
2023-03-06T17:56:20.123Z,89.86
2023-03-06T17:58:48.099Z,90.18
2023-03-06T18:01:19.551Z,90.33
2023-03-06T18:03:49.385Z,90.64
2023-03-06T18:06:18.130Z,90.80
2023-03-06T18:08:46.627Z,92.41
2023-03-06T18:11:15.606Z,91.07
2023-03-06T18:13:44.569Z,94.42
2023-03-06T18:16:15.390Z,94.02
2023-03-06T18:18:43.963Z,92.37
2023-03-06T18:21:14.058Z,95.20
2023-03-06T18:23:41.937Z,95.12
2023-03-06T18:26:12.711Z,94.95
2023-03-06T18:28:45.655Z,94.52
2023-03-06T18:31:21.754Z,94.41
2023-03-06T18:33:50.914Z,94.79
2023-03-06T18:36:19.152Z,94.34
2023-03-06T18:38:48.080Z,93.23
2023-03-06T18:41:17.209Z,93.19
2023-03-06T18:43:45.507Z,93.35
2023-03-06T18:46:13.126Z,93.73
2023-03-06T18:48:40.665Z,94.64
2023-03-06T18:51:10.517Z,94.13
2023-03-06T18:53:40.113Z,93.37
2023-03-06T18:56:10.780Z,93.55
2023-03-06T18:58:38.686Z,93.54
2023-03-06T19:01:07.389Z,93.53
2023-03-06T19:03:35.662Z,93.35
2023-03-06T19:06:09.173Z,94.72
2023-03-06T19:08:38.337Z,95.37
2023-03-06T19:11:11.374Z,95.40
2023-03-06T19:13:39.635Z,97.52
2023-03-06T19:16:08.213Z,95.21
2023-03-06T19:18:36.229Z,95.02
2023-03-06T19:21:12.674Z,95.29
2023-03-06T19:23:41.220Z,97.96
2023-03-06T19:26:10.405Z,98.27
2023-03-06T19:28:40.669Z,97.13
2023-03-06T19:31:19.509Z,97.50
2023-03-06T19:33:48.934Z,98.05
2023-03-06T19:36:18.499Z,98.30
2023-03-06T19:38:52.644Z,97.15
2023-03-06T19:41:21.616Z,97.56
2023-03-06T19:43:53.746Z,97.19
2023-03-06T19:46:22.451Z,96.38
2023-03-06T19:49:14.124Z,96.63
2023-03-06T19:51:42.231Z,96.57
2023-03-06T19:54:13.979Z,96.90
2023-03-06T19:56:42.514Z,96.97
2023-03-06T19:59:10.434Z,95.92
2023-03-06T20:01:39.674Z,97.05
2023-03-06T20:04:08.321Z,98.09
2023-03-06T20:06:37.689Z,99.44
2023-03-06T20:09:08.342Z,100.00
2023-03-06T20:11:36.461Z,100.00
2023-03-06T20:14:06.460Z,100.00
2023-03-06T20:16:35.040Z,100.00
2023-03-06T20:19:03.960Z,100.00
2023-03-06T20:21:35.310Z,100.00
2023-03-06T20:24:04.262Z,100.00
2023-03-06T20:26:34.149Z,100.00
2023-03-06T20:29:02.338Z,100.00
2023-03-06T20:31:30.935Z,100.00
2023-03-06T20:33:59.599Z,100.00
2023-03-06T20:36:36.246Z,100.00
2023-03-06T20:39:09.056Z,100.00
2023-03-06T20:41:37.114Z,100.00
2023-03-06T20:44:07.038Z,100.00
2023-03-06T20:46:35.522Z,100.00
2023-03-06T20:49:03.824Z,100.00
2023-03-06T20:51:36.159Z,100.00
2023-03-06T20:54:04.356Z,100.00
2023-03-06T20:56:34.005Z,100.00
2023-03-06T20:59:02.646Z,100.00
2023-03-06T21:01:33.223Z,100.00
2023-03-06T21:04:02.360Z,100.00
2023-03-06T21:06:30.708Z,100.00
2023-03-06T21:09:00.034Z,100.00
2023-03-06T21:11:28.472Z,100.00
2023-03-06T21:13:56.497Z,100.00
2023-03-06T21:16:25.877Z,100.00
2023-03-06T21:18:54.860Z,100.00
2023-03-06T21:21:25.535Z,100.00
2023-03-06T21:23:54.331Z,100.00
2023-03-06T21:26:24.337Z,100.00
2023-03-06T21:28:51.903Z,100.00
2023-03-06T21:31:20.767Z,100.00
2023-03-06T21:33:49.860Z,100.00
2023-03-06T21:36:19.334Z,100.00
2023-03-06T21:38:47.623Z,100.00
2023-03-06T21:41:20.165Z,100.00
2023-03-06T21:43:47.727Z,100.00
2023-03-06T21:46:15.638Z,100.00
2023-03-06T21:48:43.221Z,100.00
2023-03-06T21:51:19.128Z,100.00
2023-03-06T21:53:48.175Z,100.00
2023-03-06T21:56:17.594Z,100.00
2023-03-06T21:58:45.619Z,100.00
2023-03-06T22:01:17.679Z,100.00
2023-03-06T22:03:45.999Z,100.00
2023-03-06T22:06:16.382Z,100.00
2023-03-06T22:08:44.047Z,100.00
2023-03-06T22:11:15.387Z,100.00
2023-03-06T22:13:43.270Z,100.00
2023-03-06T22:16:11.409Z,100.00
2023-03-06T22:18:39.925Z,100.00
2023-03-06T22:21:12.398Z,100.00
2023-03-06T22:23:43.373Z,100.00
2023-03-06T22:26:14.362Z,100.00
2023-03-06T22:28:42.454Z,100.00
2023-03-06T22:31:12.649Z,100.00
2023-03-06T22:33:40.699Z,100.00
2023-03-06T22:36:10.920Z,100.00
2023-03-06T22:38:40.706Z,100.00
2023-03-06T22:41:09.367Z,100.00
2023-03-06T22:43:37.340Z,100.00
2023-03-06T22:46:07.830Z,100.00
2023-03-06T22:48:35.781Z,100.00
2023-03-06T22:51:07.733Z,100.00
2023-03-06T22:53:35.934Z,100.00
2023-03-06T22:56:05.535Z,100.00
2023-03-06T22:58:36.951Z,100.00
2023-03-06T23:01:06.149Z,100.00
2023-03-06T23:03:35.747Z,100.00
2023-03-06T23:06:08.816Z,100.00
2023-03-06T23:08:36.866Z,100.00
2023-03-06T23:11:12.039Z,100.00
2023-03-06T23:13:58.586Z,100.00
2023-03-06T23:16:44.637Z,100.00
2023-03-06T23:19:31.178Z,100.00
2023-03-06T23:22:17.229Z,100.00
2023-03-06T23:25:03.040Z,100.00
2023-03-06T23:27:30.884Z,100.00
2023-03-06T23:29:59.204Z,100.00
2023-03-06T23:32:26.864Z,100.00
2023-03-06T23:34:54.879Z,100.00
2023-03-06T23:37:22.479Z,100.00
2023-03-06T23:39:50.132Z,100.00
2023-03-06T23:42:18.023Z,100.00
2023-03-06T23:44:45.727Z,100.00
2023-03-06T23:47:13.265Z,100.00
2023-03-06T23:49:41.170Z,100.00
2023-03-06T23:52:08.847Z,100.00
2023-03-06T23:54:36.641Z,100.00
2023-03-06T23:57:04.405Z,100.00
2023-03-06T23:59:32.117Z,100.00
